createdAt,value
2018-05-18T00:01:02.594Z,92.40
2018-05-18T00:03:30.162Z,92.42
2018-05-18T00:05:57.714Z,92.38
2018-05-18T00:08:25.230Z,92.24
2018-05-18T00:10:52.746Z,92.24
2018-05-18T00:13:20.280Z,92.29
2018-05-18T00:15:47.806Z,92.21
2018-05-18T00:18:15.413Z,92.10
2018-05-18T00:20:42.909Z,92.05
2018-05-18T00:23:10.433Z,92.18
2018-05-18T00:25:38.071Z,92.03
2018-05-18T00:28:06.383Z,92.12
2018-05-18T00:30:33.954Z,92.27
2018-05-18T00:33:01.479Z,92.42
2018-05-18T00:35:29.429Z,92.40
2018-05-18T00:37:57.076Z,92.32
2018-05-18T00:40:24.589Z,92.17
2018-05-18T00:42:52.166Z,92.14
2018-05-18T00:45:19.707Z,92.26
2018-05-18T00:47:47.342Z,92.23
2018-05-18T00:50:14.958Z,92.41
2018-05-18T00:52:42.513Z,92.29
2018-05-18T00:55:21.647Z,92.18
2018-05-18T00:57:49.149Z,92.05
2018-05-18T01:00:16.698Z,92.10
2018-05-18T01:02:44.328Z,92.15
2018-05-18T01:05:11.866Z,92.13
2018-05-18T01:07:39.435Z,92.17
2018-05-18T01:10:07.648Z,92.31
2018-05-18T01:12:35.191Z,92.27
2018-05-18T01:15:03.047Z,92.34
2018-05-18T01:17:30.616Z,92.35
2018-05-18T01:19:58.152Z,92.25
2018-05-18T01:22:25.719Z,92.20
2018-05-18T01:24:53.222Z,92.18
2018-05-18T01:27:20.793Z,92.28
2018-05-18T01:29:48.325Z,92.13
2018-05-18T01:32:15.938Z,92.21
2018-05-18T01:34:43.462Z,92.27
2018-05-18T01:37:10.996Z,92.19
2018-05-18T01:39:38.549Z,92.15
2018-05-18T01:42:06.109Z,92.25
2018-05-18T01:44:33.670Z,92.34
2018-05-18T01:47:01.235Z,92.52
2018-05-18T01:49:29.674Z,92.69
2018-05-18T01:51:58.485Z,92.62
2018-05-18T01:54:26.076Z,92.22
2018-05-18T01:56:53.667Z,92.44
2018-05-18T01:59:21.233Z,92.64
2018-05-18T02:01:48.749Z,92.65
2018-05-18T02:04:16.339Z,92.57
2018-05-18T02:06:43.874Z,93.11
2018-05-18T02:09:11.469Z,93.17
2018-05-18T02:11:39.033Z,93.18
2018-05-18T02:14:06.548Z,93.25
2018-05-18T02:16:34.124Z,93.21
2018-05-18T02:19:01.667Z,93.25
2018-05-18T02:21:29.240Z,93.01
2018-05-18T02:23:56.825Z,93.21
2018-05-18T02:26:24.369Z,93.29
2018-05-18T02:28:52.909Z,93.61
2018-05-18T02:31:20.485Z,93.69
2018-05-18T02:33:48.046Z,93.59
2018-05-18T02:36:15.633Z,93.56
2018-05-18T02:38:43.194Z,93.75
2018-05-18T02:41:10.779Z,93.64
2018-05-18T02:43:38.321Z,93.72
2018-05-18T02:46:05.889Z,93.68
2018-05-18T02:48:33.876Z,93.80
2018-05-18T02:51:01.445Z,93.85
2018-05-18T02:53:29.047Z,93.76
2018-05-18T02:55:56.612Z,93.81
2018-05-18T02:58:24.185Z,93.75
2018-05-18T03:00:51.693Z,93.76
2018-05-18T03:03:19.249Z,93.71
2018-05-18T03:05:46.894Z,93.79
2018-05-18T03:08:14.472Z,93.80
2018-05-18T03:10:42.085Z,93.79
2018-05-18T03:13:09.610Z,93.80
2018-05-18T03:15:37.219Z,93.78
2018-05-18T03:18:04.766Z,93.82
2018-05-18T03:20:32.293Z,93.65
2018-05-18T03:23:00.228Z,93.65
2018-05-18T03:25:27.842Z,93.64
2018-05-18T03:27:55.423Z,93.63
2018-05-18T03:30:22.977Z,93.66
2018-05-18T03:32:50.515Z,93.45
2018-05-18T03:35:18.114Z,93.57
2018-05-18T03:37:45.668Z,93.66
2018-05-18T03:40:13.216Z,93.55
2018-05-18T03:42:40.781Z,93.47
2018-05-18T03:45:08.353Z,93.42
2018-05-18T03:47:35.981Z,93.35
2018-05-18T03:50:03.564Z,93.24
2018-05-18T03:52:31.135Z,93.06
2018-05-18T03:54:58.830Z,92.79
2018-05-18T03:57:26.403Z,92.64
2018-05-18T03:59:53.989Z,92.46
2018-05-18T04:02:33.475Z,92.18
2018-05-18T04:05:12.941Z,91.91
2018-05-18T04:07:59.198Z,91.39
2018-05-18T04:10:26.799Z,90.93
2018-05-18T04:12:54.355Z,89.79
2018-05-18T04:15:21.957Z,88.15
2018-05-18T04:17:49.538Z,86.66
2018-05-18T04:20:17.105Z,85.33
2018-05-18T04:22:44.697Z,84.10
2018-05-18T04:25:12.232Z,82.54
2018-05-18T04:27:39.796Z,81.02
2018-05-18T04:30:07.409Z,79.80
2018-05-18T04:32:34.946Z,80.09
2018-05-18T04:35:02.521Z,80.97
2018-05-18T04:37:30.037Z,80.75
2018-05-18T04:39:57.559Z,80.50
2018-05-18T04:42:25.150Z,81.43
2018-05-18T04:44:52.715Z,81.13
2018-05-18T04:47:20.286Z,78.84
2018-05-18T04:49:47.786Z,78.95
2018-05-18T04:52:15.382Z,77.02
2018-05-18T04:54:42.975Z,77.54
2018-05-18T04:57:10.515Z,76.83
2018-05-18T04:59:38.051Z,76.99
2018-05-18T05:02:05.607Z,75.78
2018-05-18T05:04:33.142Z,74.75
2018-05-18T05:07:00.705Z,72.14
2018-05-18T05:09:28.327Z,68.78
2018-05-18T05:11:55.943Z,65.21
2018-05-18T05:14:23.491Z,61.66
2018-05-18T05:16:51.045Z,60.61
2018-05-18T05:19:18.598Z,58.24
2018-05-18T05:21:46.160Z,57.21
2018-05-18T05:24:14.317Z,59.17
2018-05-18T05:26:41.875Z,61.01
2018-05-18T05:29:09.464Z,63.08
2018-05-18T05:31:37.005Z,64.04
2018-05-18T05:34:04.569Z,63.91
2018-05-18T05:36:32.129Z,63.86
2018-05-18T05:38:59.655Z,63.40
2018-05-18T05:41:27.209Z,62.40
2018-05-18T05:43:54.729Z,61.84
2018-05-18T05:46:22.283Z,61.74
2018-05-18T05:48:49.876Z,59.60
2018-05-18T05:51:17.421Z,52.73
2018-05-18T05:53:45.070Z,47.32
2018-05-18T05:56:12.630Z,45.11
2018-05-18T05:58:40.200Z,42.26
2018-05-18T06:01:07.728Z,41.98
2018-05-18T06:03:35.279Z,41.34
2018-05-18T06:06:02.833Z,38.97
2018-05-18T06:08:30.338Z,39.50
2018-05-18T06:10:57.886Z,41.78
2018-05-18T06:13:25.545Z,36.80
2018-05-18T06:15:53.066Z,37.01
2018-05-18T06:18:20.625Z,37.27
2018-05-18T06:20:48.215Z,34.98
2018-05-18T06:23:15.762Z,33.05
2018-05-18T07:36:39.929Z,24.83
2018-05-18T07:39:07.463Z,25.09
2018-05-18T07:41:34.997Z,25.26
2018-05-18T07:44:02.524Z,25.41
2018-05-18T07:46:30.040Z,27.63
2018-05-18T07:48:57.602Z,25.49
2018-05-18T07:51:48.637Z,24.72
2018-05-18T07:54:16.173Z,23.77
2018-05-18T07:56:43.731Z,24.89
2018-05-18T07:59:11.299Z,24.67
2018-05-18T08:04:51.370Z,25.22
2018-05-18T08:07:18.878Z,24.15
2018-05-18T08:09:46.406Z,23.82
2018-05-18T08:12:13.985Z,23.08
2018-05-18T08:14:48.433Z,23.07
2018-05-18T08:17:15.987Z,23.62
2018-05-18T08:19:43.650Z,23.83
2018-05-18T08:22:11.199Z,25.26
2018-05-18T08:24:38.718Z,25.10
2018-05-18T08:27:17.795Z,25.45
2018-05-18T08:29:45.344Z,26.04
2018-05-18T08:32:12.880Z,25.32
2018-05-18T08:34:40.393Z,24.05
2018-05-18T08:37:07.965Z,23.27
2018-05-18T08:39:35.558Z,24.17
2018-05-18T08:42:03.130Z,24.69
2018-05-18T08:53:08.643Z,22.20
2018-05-18T08:55:36.158Z,22.30
2018-05-18T08:58:03.691Z,21.71
2018-05-18T09:00:31.311Z,21.42
2018-05-18T09:02:59.629Z,21.82
2018-05-18T09:05:27.325Z,22.92
2018-05-18T09:07:54.876Z,23.35
2018-05-18T09:10:23.019Z,23.98
2018-05-18T09:12:50.531Z,23.04
2018-05-18T09:15:18.049Z,22.05
2018-05-18T09:17:45.543Z,22.20
2018-05-18T09:20:13.088Z,21.97
2018-05-18T09:22:40.607Z,21.33
2018-05-18T09:25:08.120Z,20.96
2018-05-18T09:44:16.968Z,21.27
2018-05-18T09:58:51.662Z,26.61
2018-05-18T10:30:14.797Z,21.93
2018-05-18T10:32:45.928Z,22.37
2018-05-18T10:35:16.933Z,22.26
2018-05-18T10:37:59.280Z,20.22
2018-05-18T10:40:36.778Z,21.28
2018-05-18T10:43:13.314Z,20.23
2018-05-18T10:46:03.737Z,23.21
2018-05-18T10:48:35.161Z,28.70
2018-05-18T10:51:07.340Z,30.72
2018-05-18T10:56:40.581Z,32.16
2018-05-18T10:59:18.648Z,31.04
2018-05-18T11:01:49.580Z,27.75
2018-05-18T11:04:21.187Z,29.35
2018-05-18T11:06:59.258Z,26.11
2018-05-18T11:09:55.902Z,25.28
2018-05-18T11:15:11.899Z,26.87
2018-05-18T11:17:52.191Z,31.53
2018-05-18T11:20:27.869Z,34.83
2018-05-18T11:22:59.577Z,33.45
2018-05-18T11:25:45.976Z,32.10
2018-05-18T11:28:21.162Z,32.30
2018-05-18T11:33:35.977Z,32.55
2018-05-18T11:36:15.648Z,32.04
2018-05-18T11:38:51.709Z,32.57
2018-05-18T11:41:46.606Z,32.76
2018-05-18T11:47:11.721Z,36.09
2018-05-18T11:49:51.146Z,34.34
2018-05-18T11:55:19.673Z,34.08
2018-05-18T11:57:53.864Z,32.63
2018-05-18T12:03:50.621Z,33.87
2018-05-18T12:12:27.639Z,38.23
2018-05-18T12:15:00.126Z,35.69
2018-05-18T12:17:32.539Z,33.82
2018-05-18T12:20:22.099Z,36.58
2018-05-18T12:22:58.108Z,34.98
2018-05-18T12:25:28.900Z,34.15
2018-05-18T12:28:07.817Z,36.13
2018-05-18T12:31:02.100Z,34.08
2018-05-18T12:33:34.897Z,32.55
2018-05-18T12:36:21.311Z,33.59
2018-05-18T12:38:55.879Z,34.83
2018-05-18T12:41:45.803Z,36.49
2018-05-18T12:44:19.758Z,33.59
2018-05-18T12:46:52.770Z,33.73
2018-05-18T12:49:26.875Z,33.38
2018-05-18T12:52:01.601Z,34.84
2018-05-18T12:54:35.400Z,34.02
2018-05-18T12:59:52.844Z,34.09
2018-05-18T13:02:26.108Z,37.68
2018-05-18T13:04:56.353Z,35.39
2018-05-18T13:07:24.440Z,36.84
2018-05-18T13:16:23.885Z,35.93
2018-05-18T13:19:05.494Z,38.02
2018-05-18T13:21:47.266Z,38.07
2018-05-18T13:24:34.045Z,36.27
2018-05-18T13:27:08.940Z,38.42
2018-05-18T13:29:46.591Z,36.20
2018-05-18T13:32:33.402Z,38.55
2018-05-18T13:35:10.589Z,35.85
2018-05-18T13:37:59.639Z,35.16
2018-05-18T13:46:05.212Z,36.37
2018-05-18T13:48:34.439Z,36.89
2018-05-18T13:51:10.222Z,37.38
2018-05-18T13:56:33.925Z,35.55
2018-05-18T13:59:06.953Z,36.74
2018-05-18T14:01:39.877Z,37.86
2018-05-18T14:04:36.971Z,38.87
2018-05-18T14:07:09.730Z,35.34
2018-05-18T14:09:42.658Z,36.57
2018-05-18T14:15:04.301Z,37.90
2018-05-18T14:17:44.683Z,36.79
2018-05-18T14:23:15.543Z,36.78
2018-05-18T14:25:51.414Z,38.97
2018-05-18T14:28:25.265Z,37.75
2018-05-18T14:31:23.668Z,36.04
2018-05-18T14:36:49.892Z,36.15
2018-05-18T14:42:20.974Z,35.94
2018-05-18T14:44:54.681Z,37.04
2018-05-18T14:47:23.863Z,37.14
2018-05-18T14:52:50.367Z,39.01
2018-05-18T14:55:23.209Z,38.76
2018-05-18T14:57:55.451Z,35.73
2018-05-18T15:00:28.464Z,36.25
2018-05-18T15:03:01.274Z,38.79
2018-05-18T15:05:35.123Z,38.75
2018-05-18T15:11:04.579Z,35.79
2018-05-18T15:13:41.051Z,36.28
2018-05-18T15:16:16.238Z,36.20
2018-05-18T15:19:04.255Z,37.13
2018-05-18T15:21:46.746Z,37.64
2018-05-18T15:24:17.492Z,37.71
2018-05-18T15:26:51.829Z,37.76
2018-05-18T15:29:23.134Z,37.64
2018-05-18T15:34:36.578Z,38.21
2018-05-18T15:37:06.147Z,38.71
2018-05-18T15:39:51.103Z,37.51
2018-05-18T15:42:22.143Z,38.53
2018-05-18T15:44:55.596Z,38.63
2018-05-18T15:47:30.004Z,39.47
2018-05-18T15:50:02.570Z,38.54
2018-05-18T15:55:26.853Z,38.76
2018-05-18T15:57:58.093Z,39.93
2018-05-18T16:00:35.373Z,41.30
2018-05-18T16:03:07.130Z,41.18
2018-05-18T16:05:39.452Z,39.61
2018-05-18T16:11:12.161Z,38.77
2018-05-18T16:13:44.733Z,41.44
2018-05-18T16:16:26.379Z,40.97
2018-05-18T16:18:59.725Z,40.82
2018-05-18T16:21:33.422Z,40.64
2018-05-18T16:24:05.114Z,41.42
2018-05-18T16:26:37.346Z,41.43
2018-05-18T16:29:12.017Z,41.47
2018-05-18T16:31:43.876Z,41.79
2018-05-18T16:37:13.580Z,41.47
2018-05-18T16:39:49.973Z,41.20
2018-05-18T16:42:28.371Z,40.78
2018-05-18T16:45:00.720Z,40.22
2018-05-18T16:47:31.133Z,41.05
2018-05-18T16:50:01.767Z,41.33
2018-05-18T16:52:55.769Z,42.17
2018-05-18T16:55:27.645Z,41.18
2018-05-18T16:58:00.447Z,41.67
2018-05-18T17:00:32.191Z,42.80
2018-05-18T17:06:02.536Z,42.97
2018-05-18T17:08:41.855Z,41.95
2018-05-18T17:11:22.014Z,42.81
2018-05-18T17:13:55.073Z,42.65
2018-05-18T17:16:32.058Z,43.13
2018-05-18T17:19:13.609Z,43.75
2018-05-18T17:24:53.031Z,42.64
2018-05-18T17:27:24.565Z,43.22
2018-05-18T17:30:11.230Z,44.31
2018-05-18T17:32:53.676Z,43.85
2018-05-18T17:35:41.224Z,43.74
2018-05-18T17:38:11.325Z,44.92
2018-05-18T17:46:35.553Z,44.95
2018-05-18T17:49:13.350Z,44.71
2018-05-18T17:54:31.829Z,46.35
2018-05-18T17:57:03.981Z,46.82
2018-05-18T17:59:36.360Z,46.85
2018-05-18T18:02:24.189Z,47.08
2018-05-18T18:04:59.153Z,47.67
2018-05-18T18:07:39.823Z,48.75
2018-05-18T18:10:08.506Z,48.36
2018-05-18T18:15:54.006Z,49.58
2018-05-18T18:18:27.600Z,49.89
2018-05-18T18:27:22.515Z,50.02
2018-05-18T18:30:02.263Z,50.18
2018-05-18T18:32:37.228Z,50.97
2018-05-18T18:40:54.612Z,51.56
2018-05-18T18:43:34.953Z,51.65
2018-05-18T18:51:29.948Z,53.09
2018-05-18T18:54:16.347Z,53.59
2018-05-18T18:57:01.642Z,53.96
2018-05-18T18:59:39.151Z,54.79
2018-05-18T19:02:30.436Z,54.80
2018-05-18T19:05:03.232Z,55.42
2018-05-18T19:07:34.047Z,55.40
2018-05-18T19:13:00.688Z,55.68
2018-05-18T19:15:37.067Z,55.71
2018-05-18T19:18:05.424Z,55.65
2018-05-18T19:20:56.882Z,55.21
2018-05-18T19:23:27.224Z,55.52
2018-05-18T19:26:01.508Z,55.58
2018-05-18T19:31:11.667Z,56.17
2018-05-18T19:33:43.442Z,55.93
2018-05-18T19:36:18.492Z,56.03
2018-05-18T19:38:50.777Z,56.19
2018-05-18T19:41:31.555Z,55.70
2018-05-18T19:44:05.722Z,56.45
2018-05-18T19:46:46.629Z,56.48
2018-05-18T19:49:25.821Z,56.51
2018-05-18T19:54:50.851Z,56.50
2018-05-18T19:57:26.207Z,56.45
2018-05-18T20:00:05.136Z,56.72
2018-05-18T20:02:39.836Z,56.79
2018-05-18T20:05:15.701Z,56.49
2018-05-18T20:11:04.168Z,57.31
2018-05-18T20:13:35.287Z,57.19
2018-05-18T20:22:14.802Z,58.12
2018-05-18T20:24:59.954Z,58.00
2018-05-18T20:30:11.974Z,58.12
2018-05-18T20:38:46.874Z,59.98
2018-05-18T20:41:23.813Z,59.56
2018-05-18T20:43:54.040Z,59.63
2018-05-18T20:46:26.745Z,59.48
2018-05-18T20:48:59.010Z,60.18
2018-05-18T20:57:16.040Z,60.85
2018-05-18T20:59:43.967Z,61.32
2018-05-18T21:02:25.083Z,61.59
2018-05-18T21:07:51.729Z,62.05
2018-05-18T21:10:27.861Z,62.53
2018-05-18T21:12:59.033Z,62.63
2018-05-18T21:15:30.518Z,63.09
2018-05-18T21:18:08.201Z,63.05
2018-05-18T21:26:24.341Z,64.26
2018-05-18T21:28:56.423Z,64.53
2018-05-18T21:31:30.947Z,65.19
2018-05-18T21:34:12.627Z,64.95
2018-05-18T21:36:57.887Z,64.89
2018-05-18T21:39:29.821Z,65.61
2018-05-18T21:41:59.792Z,65.32
2018-05-18T21:44:33.978Z,65.87
2018-05-18T21:47:08.500Z,66.06
2018-05-18T21:49:42.525Z,66.66
2018-05-18T21:52:10.712Z,66.85
2018-05-18T21:54:40.273Z,66.85
2018-05-18T21:57:11.872Z,66.83
2018-05-18T21:59:43.085Z,66.87
2018-05-18T22:02:15.900Z,67.35
2018-05-18T22:04:59.094Z,67.66
2018-05-18T22:07:41.380Z,67.68
2018-05-18T22:10:19.076Z,67.81
2018-05-18T22:12:46.920Z,68.47
2018-05-18T22:15:14.615Z,68.60
2018-05-18T22:20:34.626Z,68.63
2018-05-18T22:23:02.404Z,68.51
2018-05-18T22:25:31.970Z,68.90
2018-05-18T22:27:59.622Z,68.69
2018-05-18T22:33:17.854Z,68.54
2018-05-18T22:35:45.768Z,68.87
2018-05-18T22:38:18.525Z,69.24
2018-05-18T22:40:47.017Z,71.06
2018-05-18T22:45:55.399Z,70.90
2018-05-18T22:48:23.285Z,70.78
2018-05-18T22:51:14.203Z,71.83
2018-05-18T22:53:41.938Z,72.60
2018-05-18T22:56:15.282Z,72.40
2018-05-18T22:58:42.997Z,72.83
2018-05-18T23:01:12.198Z,73.21
2018-05-18T23:03:45.471Z,73.73
2018-05-18T23:06:14.612Z,74.16
